sensor_id;sensor_type;location;lat;lon;timestamp;pressure;altitude;pressure_sealevel;temperature
15575;BMP180;7888;46.748;8.102;2023-05-10T00:01:25;93766.00;;;18.50
15575;BMP180;7888;46.748;8.102;2023-05-10T00:03:51;93771.00;;;18.40
15575;BMP180;7888;46.748;8.102;2023-05-10T00:06:17;93772.00;;;18.40
15575;BMP180;7888;46.748;8.102;2023-05-10T00:08:44;93768.00;;;18.30
15575;BMP180;7888;46.748;8.102;2023-05-10T00:11:10;93774.00;;;18.30
15575;BMP180;7888;46.748;8.102;2023-05-10T00:13:36;93782.00;;;18.30
15575;BMP180;7888;46.748;8.102;2023-05-10T00:16:02;93780.00;;;18.30
15575;BMP180;7888;46.748;8.102;2023-05-10T00:18:28;93785.00;;;18.30
15575;BMP180;7888;46.748;8.102;2023-05-10T00:20:54;93783.00;;;18.30
15575;BMP180;7888;46.748;8.102;2023-05-10T00:23:19;93788.00;;;18.30
15575;BMP180;7888;46.748;8.102;2023-05-10T00:25:45;93782.00;;;18.20
15575;BMP180;7888;46.748;8.102;2023-05-10T00:28:11;93783.00;;;18.20
15575;BMP180;7888;46.748;8.102;2023-05-10T00:30:37;93766.00;;;18.20
15575;BMP180;7888;46.748;8.102;2023-05-10T00:33:02;93776.00;;;18.20
15575;BMP180;7888;46.748;8.102;2023-05-10T00:35:28;93768.00;;;18.20
15575;BMP180;7888;46.748;8.102;2023-05-10T00:37:54;93753.00;;;18.20
15575;BMP180;7888;46.748;8.102;2023-05-10T00:40:20;93772.00;;;18.20
15575;BMP180;7888;46.748;8.102;2023-05-10T00:42:46;93774.00;;;18.10
15575;BMP180;7888;46.748;8.102;2023-05-10T00:45:12;93763.00;;;18.10
15575;BMP180;7888;46.748;8.102;2023-05-10T00:47:38;93768.00;;;18.00
15575;BMP180;7888;46.748;8.102;2023-05-10T00:50:05;93774.00;;;18.10
15575;BMP180;7888;46.748;8.102;2023-05-10T00:52:31;93774.00;;;18.10
15575;BMP180;7888;46.748;8.102;2023-05-10T00:54:57;93774.00;;;18.10
15575;BMP180;7888;46.748;8.102;2023-05-10T00:57:24;93747.00;;;18.10
15575;BMP180;7888;46.748;8.102;2023-05-10T00:59:51;93782.00;;;18.10
15575;BMP180;7888;46.748;8.102;2023-05-10T01:02:17;93779.00;;;18.10
15575;BMP180;7888;46.748;8.102;2023-05-10T01:04:43;93789.00;;;18.00
15575;BMP180;7888;46.748;8.102;2023-05-10T01:07:09;93786.00;;;18.10
15575;BMP180;7888;46.748;8.102;2023-05-10T01:09:35;93776.00;;;18.10
15575;BMP180;7888;46.748;8.102;2023-05-10T01:12:02;93786.00;;;18.10
15575;BMP180;7888;46.748;8.102;2023-05-10T01:14:29;93791.00;;;18.20
15575;BMP180;7888;46.748;8.102;2023-05-10T01:16:56;93785.00;;;18.20
15575;BMP180;7888;46.748;8.102;2023-05-10T01:19:28;93784.00;;;18.10
15575;BMP180;7888;46.748;8.102;2023-05-10T01:31:03;93765.00;;;18.00
15575;BMP180;7888;46.748;8.102;2023-05-10T01:34:08;93775.00;;;18.00
15575;BMP180;7888;46.748;8.102;2023-05-10T01:37:03;93773.00;;;18.00
15575;BMP180;7888;46.748;8.102;2023-05-10T01:39:59;93754.00;;;18.00
15575;BMP180;7888;46.748;8.102;2023-05-10T01:42:36;93793.00;;;18.00
15575;BMP180;7888;46.748;8.102;2023-05-10T01:48:05;93780.00;;;18.00
15575;BMP180;7888;46.748;8.102;2023-05-10T01:50:32;93774.00;;;18.00
15575;BMP180;7888;46.748;8.102;2023-05-10T01:53:01;93775.00;;;18.00
15575;BMP180;7888;46.748;8.102;2023-05-10T01:55:35;93777.00;;;18.00
15575;BMP180;7888;46.748;8.102;2023-05-10T01:58:14;93784.00;;;18.00
15575;BMP180;7888;46.748;8.102;2023-05-10T02:00:44;93780.00;;;18.00
15575;BMP180;7888;46.748;8.102;2023-05-10T02:03:13;93787.00;;;18.00
15575;BMP180;7888;46.748;8.102;2023-05-10T02:05:43;93781.00;;;18.00
15575;BMP180;7888;46.748;8.102;2023-05-10T02:08:11;93767.00;;;18.00
15575;BMP180;7888;46.748;8.102;2023-05-10T02:10:40;93778.00;;;18.00
15575;BMP180;7888;46.748;8.102;2023-05-10T02:13:07;93762.00;;;18.00
15575;BMP180;7888;46.748;8.102;2023-05-10T02:15:35;93786.00;;;18.00
15575;BMP180;7888;46.748;8.102;2023-05-10T02:18:04;93783.00;;;17.90
15575;BMP180;7888;46.748;8.102;2023-05-10T02:20:32;93790.00;;;18.00
15575;BMP180;7888;46.748;8.102;2023-05-10T02:22:59;93773.00;;;18.00
15575;BMP180;7888;46.748;8.102;2023-05-10T02:25:28;93788.00;;;18.00
15575;BMP180;7888;46.748;8.102;2023-05-10T02:27:57;93762.00;;;18.00
15575;BMP180;7888;46.748;8.102;2023-05-10T02:30:23;93785.00;;;18.00
15575;BMP180;7888;46.748;8.102;2023-05-10T02:32:51;93786.00;;;17.90
15575;BMP180;7888;46.748;8.102;2023-05-10T02:35:18;93780.00;;;17.90
15575;BMP180;7888;46.748;8.102;2023-05-10T02:37:45;93781.00;;;17.90
15575;BMP180;7888;46.748;8.102;2023-05-10T02:40:13;93781.00;;;17.90
15575;BMP180;7888;46.748;8.102;2023-05-10T02:42:42;93791.00;;;17.90
15575;BMP180;7888;46.748;8.102;2023-05-10T02:45:23;93769.00;;;17.90
15575;BMP180;7888;46.748;8.102;2023-05-10T02:47:50;93776.00;;;17.90
15575;BMP180;7888;46.748;8.102;2023-05-10T02:50:16;93792.00;;;17.90
15575;BMP180;7888;46.748;8.102;2023-05-10T02:52:51;93796.00;;;17.80
15575;BMP180;7888;46.748;8.102;2023-05-10T02:55:22;93801.00;;;17.80
15575;BMP180;7888;46.748;8.102;2023-05-10T02:58:01;93792.00;;;17.80
15575;BMP180;7888;46.748;8.102;2023-05-10T03:00:28;93760.00;;;17.90
15575;BMP180;7888;46.748;8.102;2023-05-10T03:02:54;93797.00;;;17.80
15575;BMP180;7888;46.748;8.102;2023-05-10T03:05:20;93763.00;;;17.90
15575;BMP180;7888;46.748;8.102;2023-05-10T03:07:47;93781.00;;;17.80
15575;BMP180;7888;46.748;8.102;2023-05-10T03:10:13;93788.00;;;17.80
15575;BMP180;7888;46.748;8.102;2023-05-10T03:16:16;93768.00;;;17.70
15575;BMP180;7888;46.748;8.102;2023-05-10T03:18:55;93782.00;;;17.70
15575;BMP180;7888;46.748;8.102;2023-05-10T03:21:25;93785.00;;;17.70
15575;BMP180;7888;46.748;8.102;2023-05-10T03:24:02;93788.00;;;17.70
15575;BMP180;7888;46.748;8.102;2023-05-10T03:26:32;93780.00;;;17.70
15575;BMP180;7888;46.748;8.102;2023-05-10T03:29:00;93788.00;;;17.60
15575;BMP180;7888;46.748;8.102;2023-05-10T03:31:26;93782.00;;;17.60
15575;BMP180;7888;46.748;8.102;2023-05-10T03:33:53;93771.00;;;17.60
15575;BMP180;7888;46.748;8.102;2023-05-10T03:36:19;93780.00;;;17.60
15575;BMP180;7888;46.748;8.102;2023-05-10T03:38:45;93781.00;;;17.60
15575;BMP180;7888;46.748;8.102;2023-05-10T03:41:11;93778.00;;;17.60
15575;BMP180;7888;46.748;8.102;2023-05-10T03:43:37;93764.00;;;17.60
15575;BMP180;7888;46.748;8.102;2023-05-10T03:46:06;93765.00;;;17.60
15575;BMP180;7888;46.748;8.102;2023-05-10T03:48:34;93772.00;;;17.60
15575;BMP180;7888;46.748;8.102;2023-05-10T03:51:00;93765.00;;;17.60
15575;BMP180;7888;46.748;8.102;2023-05-10T03:53:26;93774.00;;;17.50
15575;BMP180;7888;46.748;8.102;2023-05-10T03:55:52;93765.00;;;17.50
15575;BMP180;7888;46.748;8.102;2023-05-10T03:58:18;93771.00;;;17.40
15575;BMP180;7888;46.748;8.102;2023-05-10T04:00:44;93769.00;;;17.40
15575;BMP180;7888;46.748;8.102;2023-05-10T04:03:11;93763.00;;;17.40
15575;BMP180;7888;46.748;8.102;2023-05-10T04:05:37;93758.00;;;17.40
15575;BMP180;7888;46.748;8.102;2023-05-10T04:08:04;93752.00;;;17.30
15575;BMP180;7888;46.748;8.102;2023-05-10T04:10:31;93755.00;;;17.30
15575;BMP180;7888;46.748;8.102;2023-05-10T04:12:56;93758.00;;;17.30
15575;BMP180;7888;46.748;8.102;2023-05-10T04:15:22;93764.00;;;17.30
15575;BMP180;7888;46.748;8.102;2023-05-10T04:17:48;93765.00;;;17.30
15575;BMP180;7888;46.748;8.102;2023-05-10T04:20:14;93772.00;;;17.40
15575;BMP180;7888;46.748;8.102;2023-05-10T04:22:40;93778.00;;;17.40
15575;BMP180;7888;46.748;8.102;2023-05-10T04:25:07;93762.00;;;17.40
15575;BMP180;7888;46.748;8.102;2023-05-10T04:27:33;93764.00;;;17.40
15575;BMP180;7888;46.748;8.102;2023-05-10T04:29:59;93775.00;;;17.40
15575;BMP180;7888;46.748;8.102;2023-05-10T04:32:24;93763.00;;;17.30
15575;BMP180;7888;46.748;8.102;2023-05-10T04:34:50;93789.00;;;17.30
15575;BMP180;7888;46.748;8.102;2023-05-10T04:37:17;93778.00;;;17.30
15575;BMP180;7888;46.748;8.102;2023-05-10T04:39:43;93789.00;;;17.30
15575;BMP180;7888;46.748;8.102;2023-05-10T04:42:09;93799.00;;;17.30
15575;BMP180;7888;46.748;8.102;2023-05-10T04:44:35;93802.00;;;17.30
15575;BMP180;7888;46.748;8.102;2023-05-10T04:47:01;93784.00;;;17.30
15575;BMP180;7888;46.748;8.102;2023-05-10T04:49:29;93799.00;;;17.30
15575;BMP180;7888;46.748;8.102;2023-05-10T04:51:55;93757.00;;;17.20
15575;BMP180;7888;46.748;8.102;2023-05-10T04:54:21;93798.00;;;17.20
15575;BMP180;7888;46.748;8.102;2023-05-10T04:56:47;93800.00;;;17.10
15575;BMP180;7888;46.748;8.102;2023-05-10T04:59:13;93796.00;;;17.00
15575;BMP180;7888;46.748;8.102;2023-05-10T05:01:39;93805.00;;;16.90
15575;BMP180;7888;46.748;8.102;2023-05-10T05:04:05;93811.00;;;16.90
15575;BMP180;7888;46.748;8.102;2023-05-10T05:06:30;93804.00;;;16.90
15575;BMP180;7888;46.748;8.102;2023-05-10T05:08:56;93804.00;;;16.90
15575;BMP180;7888;46.748;8.102;2023-05-10T05:11:22;93793.00;;;16.90
15575;BMP180;7888;46.748;8.102;2023-05-10T05:13:48;93801.00;;;16.80
15575;BMP180;7888;46.748;8.102;2023-05-10T05:16:14;93819.00;;;16.90
15575;BMP180;7888;46.748;8.102;2023-05-10T05:18:39;93810.00;;;16.90
15575;BMP180;7888;46.748;8.102;2023-05-10T05:21:19;93775.00;;;16.90
15575;BMP180;7888;46.748;8.102;2023-05-10T05:23:46;93821.00;;;16.90
15575;BMP180;7888;46.748;8.102;2023-05-10T05:26:12;93821.00;;;16.90
15575;BMP180;7888;46.748;8.102;2023-05-10T05:28:38;93809.00;;;16.90
15575;BMP180;7888;46.748;8.102;2023-05-10T05:31:07;93823.00;;;16.90
15575;BMP180;7888;46.748;8.102;2023-05-10T05:33:33;93813.00;;;17.00
15575;BMP180;7888;46.748;8.102;2023-05-10T05:36:04;93820.00;;;16.90
15575;BMP180;7888;46.748;8.102;2023-05-10T05:38:30;93833.00;;;16.90
15575;BMP180;7888;46.748;8.102;2023-05-10T05:40:56;93837.00;;;16.90
15575;BMP180;7888;46.748;8.102;2023-05-10T05:43:22;93824.00;;;16.90
15575;BMP180;7888;46.748;8.102;2023-05-10T05:45:48;93827.00;;;16.90
15575;BMP180;7888;46.748;8.102;2023-05-10T05:48:14;93833.00;;;16.90
15575;BMP180;7888;46.748;8.102;2023-05-10T05:50:40;93844.00;;;16.90
15575;BMP180;7888;46.748;8.102;2023-05-10T05:53:06;93834.00;;;16.90
15575;BMP180;7888;46.748;8.102;2023-05-10T05:55:32;93842.00;;;16.90
15575;BMP180;7888;46.748;8.102;2023-05-10T05:57:58;93844.00;;;16.90
15575;BMP180;7888;46.748;8.102;2023-05-10T06:00:24;93854.00;;;17.00
15575;BMP180;7888;46.748;8.102;2023-05-10T06:02:50;93822.00;;;17.00
15575;BMP180;7888;46.748;8.102;2023-05-10T06:05:15;93842.00;;;17.00
15575;BMP180;7888;46.748;8.102;2023-05-10T06:07:41;93848.00;;;17.00
15575;BMP180;7888;46.748;8.102;2023-05-10T06:10:08;93838.00;;;17.10
15575;BMP180;7888;46.748;8.102;2023-05-10T06:12:34;93850.00;;;17.10
15575;BMP180;7888;46.748;8.102;2023-05-10T06:15:00;93836.00;;;17.20
15575;BMP180;7888;46.748;8.102;2023-05-10T06:17:26;93853.00;;;17.20
15575;BMP180;7888;46.748;8.102;2023-05-10T06:19:53;93846.00;;;17.20
15575;BMP180;7888;46.748;8.102;2023-05-10T06:22:18;93860.00;;;17.30
15575;BMP180;7888;46.748;8.102;2023-05-10T06:24:44;93845.00;;;17.20
15575;BMP180;7888;46.748;8.102;2023-05-10T06:27:10;93847.00;;;17.30
15575;BMP180;7888;46.748;8.102;2023-05-10T06:29:35;93853.00;;;17.30
15575;BMP180;7888;46.748;8.102;2023-05-10T06:32:01;93859.00;;;17.40
15575;BMP180;7888;46.748;8.102;2023-05-10T06:34:27;93859.00;;;17.40
15575;BMP180;7888;46.748;8.102;2023-05-10T06:36:53;93861.00;;;17.40
15575;BMP180;7888;46.748;8.102;2023-05-10T06:39:19;93857.00;;;17.40
15575;BMP180;7888;46.748;8.102;2023-05-10T06:41:45;93858.00;;;17.40
15575;BMP180;7888;46.748;8.102;2023-05-10T06:44:10;93846.00;;;17.40
15575;BMP180;7888;46.748;8.102;2023-05-10T06:46:36;93857.00;;;17.40
15575;BMP180;7888;46.748;8.102;2023-05-10T06:49:02;93851.00;;;17.40
15575;BMP180;7888;46.748;8.102;2023-05-10T06:51:28;93864.00;;;17.40
15575;BMP180;7888;46.748;8.102;2023-05-10T06:53:54;93862.00;;;17.40
15575;BMP180;7888;46.748;8.102;2023-05-10T06:56:20;93859.00;;;17.40
15575;BMP180;7888;46.748;8.102;2023-05-10T06:58:47;93873.00;;;17.40
15575;BMP180;7888;46.748;8.102;2023-05-10T07:01:13;93873.00;;;17.50
15575;BMP180;7888;46.748;8.102;2023-05-10T07:03:39;93858.00;;;17.40
15575;BMP180;7888;46.748;8.102;2023-05-10T07:06:06;93879.00;;;17.40
15575;BMP180;7888;46.748;8.102;2023-05-10T07:08:33;93888.00;;;17.40
15575;BMP180;7888;46.748;8.102;2023-05-10T07:11:04;93873.00;;;17.30
15575;BMP180;7888;46.748;8.102;2023-05-10T07:13:31;93860.00;;;17.30
15575;BMP180;7888;46.748;8.102;2023-05-10T07:15:58;93846.00;;;17.40
15575;BMP180;7888;46.748;8.102;2023-05-10T07:18:25;93892.00;;;17.40
15575;BMP180;7888;46.748;8.102;2023-05-10T07:20:51;93866.00;;;17.40
15575;BMP180;7888;46.748;8.102;2023-05-10T07:23:17;93883.00;;;17.40
15575;BMP180;7888;46.748;8.102;2023-05-10T07:25:50;93880.00;;;17.50
15575;BMP180;7888;46.748;8.102;2023-05-10T07:28:18;93855.00;;;17.50
15575;BMP180;7888;46.748;8.102;2023-05-10T07:30:44;93868.00;;;17.60
15575;BMP180;7888;46.748;8.102;2023-05-10T07:33:12;93883.00;;;17.50
15575;BMP180;7888;46.748;8.102;2023-05-10T07:35:38;93892.00;;;17.60
15575;BMP180;7888;46.748;8.102;2023-05-10T07:38:04;93886.00;;;17.60
15575;BMP180;7888;46.748;8.102;2023-05-10T07:40:30;93885.00;;;17.70
15575;BMP180;7888;46.748;8.102;2023-05-10T07:42:56;93889.00;;;17.70
15575;BMP180;7888;46.748;8.102;2023-05-10T07:45:22;93889.00;;;17.70
15575;BMP180;7888;46.748;8.102;2023-05-10T07:47:49;93889.00;;;17.70
15575;BMP180;7888;46.748;8.102;2023-05-10T07:50:15;93883.00;;;17.70
15575;BMP180;7888;46.748;8.102;2023-05-10T07:52:41;93905.00;;;17.70
15575;BMP180;7888;46.748;8.102;2023-05-10T07:55:08;93901.00;;;17.70
15575;BMP180;7888;46.748;8.102;2023-05-10T07:57:34;93882.00;;;17.70
15575;BMP180;7888;46.748;8.102;2023-05-10T08:00:00;93899.00;;;17.70
15575;BMP180;7888;46.748;8.102;2023-05-10T08:02:26;93877.00;;;17.70
15575;BMP180;7888;46.748;8.102;2023-05-10T08:04:52;93908.00;;;17.70
15575;BMP180;7888;46.748;8.102;2023-05-10T08:07:18;93909.00;;;17.70
15575;BMP180;7888;46.748;8.102;2023-05-10T08:09:44;93889.00;;;17.70
15575;BMP180;7888;46.748;8.102;2023-05-10T08:12:09;93909.00;;;17.70
15575;BMP180;7888;46.748;8.102;2023-05-10T08:14:35;93903.00;;;17.60
15575;BMP180;7888;46.748;8.102;2023-05-10T08:17:04;93909.00;;;17.60
15575;BMP180;7888;46.748;8.102;2023-05-10T08:19:30;93895.00;;;17.60
15575;BMP180;7888;46.748;8.102;2023-05-10T08:21:55;93882.00;;;17.60
15575;BMP180;7888;46.748;8.102;2023-05-10T08:24:22;93898.00;;;17.60
15575;BMP180;7888;46.748;8.102;2023-05-10T08:26:48;93889.00;;;17.60
15575;BMP180;7888;46.748;8.102;2023-05-10T08:29:14;93900.00;;;17.50
15575;BMP180;7888;46.748;8.102;2023-05-10T08:31:41;93901.00;;;17.60
15575;BMP180;7888;46.748;8.102;2023-05-10T08:34:07;93897.00;;;17.60
15575;BMP180;7888;46.748;8.102;2023-05-10T08:36:33;93866.00;;;17.60
15575;BMP180;7888;46.748;8.102;2023-05-10T08:38:59;93899.00;;;17.60
15575;BMP180;7888;46.748;8.102;2023-05-10T08:41:25;93910.00;;;17.60
15575;BMP180;7888;46.748;8.102;2023-05-10T08:43:54;93897.00;;;17.60
15575;BMP180;7888;46.748;8.102;2023-05-10T08:46:22;93919.00;;;17.40
15575;BMP180;7888;46.748;8.102;2023-05-10T08:48:50;93899.00;;;17.40
15575;BMP180;7888;46.748;8.102;2023-05-10T08:51:24;93906.00;;;17.40
15575;BMP180;7888;46.748;8.102;2023-05-10T08:53:52;93893.00;;;17.50
15575;BMP180;7888;46.748;8.102;2023-05-10T08:56:19;93911.00;;;17.50
15575;BMP180;7888;46.748;8.102;2023-05-10T08:58:45;93907.00;;;17.40
15575;BMP180;7888;46.748;8.102;2023-05-10T09:01:13;93921.00;;;17.40
15575;BMP180;7888;46.748;8.102;2023-05-10T09:03:40;93908.00;;;17.50
15575;BMP180;7888;46.748;8.102;2023-05-10T09:06:06;93900.00;;;17.50
15575;BMP180;7888;46.748;8.102;2023-05-10T09:08:36;93926.00;;;17.50
15575;BMP180;7888;46.748;8.102;2023-05-10T09:11:03;93923.00;;;17.60
15575;BMP180;7888;46.748;8.102;2023-05-10T09:13:29;93923.00;;;17.60
15575;BMP180;7888;46.748;8.102;2023-05-10T09:15:55;93921.00;;;17.70
15575;BMP180;7888;46.748;8.102;2023-05-10T09:18:21;93925.00;;;17.70
15575;BMP180;7888;46.748;8.102;2023-05-10T09:20:47;93906.00;;;17.70
15575;BMP180;7888;46.748;8.102;2023-05-10T09:23:13;93927.00;;;17.70
15575;BMP180;7888;46.748;8.102;2023-05-10T09:25:41;93932.00;;;17.70
15575;BMP180;7888;46.748;8.102;2023-05-10T09:28:08;93927.00;;;17.80
15575;BMP180;7888;46.748;8.102;2023-05-10T09:30:35;93924.00;;;17.80
15575;BMP180;7888;46.748;8.102;2023-05-10T09:33:02;93925.00;;;17.70
15575;BMP180;7888;46.748;8.102;2023-05-10T09:35:31;93890.00;;;17.70
15575;BMP180;7888;46.748;8.102;2023-05-10T09:38:02;93916.00;;;17.80
15575;BMP180;7888;46.748;8.102;2023-05-10T09:40:29;93920.00;;;17.80
15575;BMP180;7888;46.748;8.102;2023-05-10T09:43:01;93910.00;;;17.80
15575;BMP180;7888;46.748;8.102;2023-05-10T09:45:32;93907.00;;;17.80
15575;BMP180;7888;46.748;8.102;2023-05-10T09:48:01;93906.00;;;17.90
15575;BMP180;7888;46.748;8.102;2023-05-10T09:50:29;93895.00;;;18.00
15575;BMP180;7888;46.748;8.102;2023-05-10T09:52:57;93910.00;;;18.00
15575;BMP180;7888;46.748;8.102;2023-05-10T09:58:05;93906.00;;;18.10
15575;BMP180;7888;46.748;8.102;2023-05-10T10:00:37;93910.00;;;18.10
15575;BMP180;7888;46.748;8.102;2023-05-10T10:03:04;93919.00;;;18.10
15575;BMP180;7888;46.748;8.102;2023-05-10T10:05:34;93912.00;;;18.10
15575;BMP180;7888;46.748;8.102;2023-05-10T10:08:03;93904.00;;;18.10
15575;BMP180;7888;46.748;8.102;2023-05-10T10:10:32;93901.00;;;18.20
15575;BMP180;7888;46.748;8.102;2023-05-10T10:12:58;93903.00;;;18.30
15575;BMP180;7888;46.748;8.102;2023-05-10T10:15:25;93903.00;;;18.30
15575;BMP180;7888;46.748;8.102;2023-05-10T10:17:52;93899.00;;;18.40
15575;BMP180;7888;46.748;8.102;2023-05-10T10:20:21;93885.00;;;18.40
15575;BMP180;7888;46.748;8.102;2023-05-10T10:22:48;93893.00;;;18.50
15575;BMP180;7888;46.748;8.102;2023-05-10T10:25:17;93876.00;;;18.60
15575;BMP180;7888;46.748;8.102;2023-05-10T10:30:44;93884.00;;;18.90
15575;BMP180;7888;46.748;8.102;2023-05-10T10:33:39;93896.00;;;19.00
15575;BMP180;7888;46.748;8.102;2023-05-10T10:36:06;93897.00;;;19.00
15575;BMP180;7888;46.748;8.102;2023-05-10T10:41:37;93907.00;;;19.00
15575;BMP180;7888;46.748;8.102;2023-05-10T10:44:26;93907.00;;;19.00
15575;BMP180;7888;46.748;8.102;2023-05-10T10:58:02;93898.00;;;19.10
15575;BMP180;7888;46.748;8.102;2023-05-10T11:00:37;93902.00;;;19.20
15575;BMP180;7888;46.748;8.102;2023-05-10T11:03:11;93898.00;;;19.30
15575;BMP180;7888;46.748;8.102;2023-05-10T11:05:48;93909.00;;;19.30
15575;BMP180;7888;46.748;8.102;2023-05-10T11:08:32;93881.00;;;19.30
15575;BMP180;7888;46.748;8.102;2023-05-10T11:13:43;93899.00;;;19.40
15575;BMP180;7888;46.748;8.102;2023-05-10T11:16:24;93902.00;;;19.40
15575;BMP180;7888;46.748;8.102;2023-05-10T11:19:02;93896.00;;;19.60
15575;BMP180;7888;46.748;8.102;2023-05-10T11:21:30;93891.00;;;19.70
15575;BMP180;7888;46.748;8.102;2023-05-10T11:24:01;93888.00;;;19.90
15575;BMP180;7888;46.748;8.102;2023-05-10T11:26:34;93886.00;;;20.00
15575;BMP180;7888;46.748;8.102;2023-05-10T11:29:00;93899.00;;;20.20
15575;BMP180;7888;46.748;8.102;2023-05-10T11:31:28;93895.00;;;20.30
15575;BMP180;7888;46.748;8.102;2023-05-10T11:33:59;93895.00;;;20.40
15575;BMP180;7888;46.748;8.102;2023-05-10T11:36:34;93887.00;;;20.40
15575;BMP180;7888;46.748;8.102;2023-05-10T11:39:02;93877.00;;;20.40
15575;BMP180;7888;46.748;8.102;2023-05-10T11:41:30;93889.00;;;20.40
15575;BMP180;7888;46.748;8.102;2023-05-10T11:43:57;93899.00;;;20.50
15575;BMP180;7888;46.748;8.102;2023-05-10T11:46:26;93905.00;;;20.50
15575;BMP180;7888;46.748;8.102;2023-05-10T11:49:00;93909.00;;;20.40
15575;BMP180;7888;46.748;8.102;2023-05-10T11:51:27;93898.00;;;20.40
15575;BMP180;7888;46.748;8.102;2023-05-10T11:53:56;93908.00;;;20.40
15575;BMP180;7888;46.748;8.102;2023-05-10T11:56:22;93913.00;;;20.50
15575;BMP180;7888;46.748;8.102;2023-05-10T11:58:58;93899.00;;;20.50
15575;BMP180;7888;46.748;8.102;2023-05-10T12:01:27;93908.00;;;20.50
15575;BMP180;7888;46.748;8.102;2023-05-10T12:03:55;93905.00;;;20.70
15575;BMP180;7888;46.748;8.102;2023-05-10T12:06:28;93904.00;;;20.80
15575;BMP180;7888;46.748;8.102;2023-05-10T12:08:54;93910.00;;;20.90
15575;BMP180;7888;46.748;8.102;2023-05-10T12:11:25;93896.00;;;20.80
15575;BMP180;7888;46.748;8.102;2023-05-10T12:13:54;93902.00;;;20.80
15575;BMP180;7888;46.748;8.102;2023-05-10T12:16:24;93906.00;;;20.70
15575;BMP180;7888;46.748;8.102;2023-05-10T12:18:51;93899.00;;;20.70
15575;BMP180;7888;46.748;8.102;2023-05-10T12:21:19;93900.00;;;20.60
15575;BMP180;7888;46.748;8.102;2023-05-10T12:23:48;93911.00;;;20.60
15575;BMP180;7888;46.748;8.102;2023-05-10T12:26:15;93905.00;;;20.50
15575;BMP180;7888;46.748;8.102;2023-05-10T12:28:41;93906.00;;;20.40
15575;BMP180;7888;46.748;8.102;2023-05-10T12:31:08;93908.00;;;20.30
15575;BMP180;7888;46.748;8.102;2023-05-10T12:33:43;93901.00;;;20.20
15575;BMP180;7888;46.748;8.102;2023-05-10T12:36:11;93908.00;;;20.30
15575;BMP180;7888;46.748;8.102;2023-05-10T12:38:42;93897.00;;;20.20
15575;BMP180;7888;46.748;8.102;2023-05-10T12:41:12;93898.00;;;20.30
15575;BMP180;7888;46.748;8.102;2023-05-10T12:43:39;93897.00;;;20.40
15575;BMP180;7888;46.748;8.102;2023-05-10T12:46:11;93904.00;;;20.40
15575;BMP180;7888;46.748;8.102;2023-05-10T12:48:39;93879.00;;;20.40
15575;BMP180;7888;46.748;8.102;2023-05-10T12:51:05;93890.00;;;20.50
15575;BMP180;7888;46.748;8.102;2023-05-10T12:53:35;93906.00;;;20.50
15575;BMP180;7888;46.748;8.102;2023-05-10T12:56:01;93903.00;;;20.40
15575;BMP180;7888;46.748;8.102;2023-05-10T12:58:27;93895.00;;;20.30
15575;BMP180;7888;46.748;8.102;2023-05-10T13:00:53;93907.00;;;20.30
15575;BMP180;7888;46.748;8.102;2023-05-10T13:03:19;93898.00;;;20.20
15575;BMP180;7888;46.748;8.102;2023-05-10T13:05:45;93894.00;;;20.20
15575;BMP180;7888;46.748;8.102;2023-05-10T13:08:11;93898.00;;;20.20
15575;BMP180;7888;46.748;8.102;2023-05-10T13:10:36;93898.00;;;20.20
15575;BMP180;7888;46.748;8.102;2023-05-10T13:13:02;93891.00;;;20.20
15575;BMP180;7888;46.748;8.102;2023-05-10T13:15:28;93889.00;;;20.30
15575;BMP180;7888;46.748;8.102;2023-05-10T13:17:54;93892.00;;;20.30
15575;BMP180;7888;46.748;8.102;2023-05-10T13:20:20;93901.00;;;20.30
15575;BMP180;7888;46.748;8.102;2023-05-10T13:22:46;93892.00;;;20.30
15575;BMP180;7888;46.748;8.102;2023-05-10T13:25:13;93893.00;;;20.30
15575;BMP180;7888;46.748;8.102;2023-05-10T13:27:41;93894.00;;;20.30
15575;BMP180;7888;46.748;8.102;2023-05-10T13:30:08;93893.00;;;20.30
15575;BMP180;7888;46.748;8.102;2023-05-10T13:32:35;93896.00;;;20.30
15575;BMP180;7888;46.748;8.102;2023-05-10T13:35:02;93904.00;;;20.20
15575;BMP180;7888;46.748;8.102;2023-05-10T13:37:29;93885.00;;;20.20
15575;BMP180;7888;46.748;8.102;2023-05-10T13:39:55;93889.00;;;20.20
15575;BMP180;7888;46.748;8.102;2023-05-10T13:42:23;93900.00;;;20.10
15575;BMP180;7888;46.748;8.102;2023-05-10T13:44:49;93891.00;;;20.10
15575;BMP180;7888;46.748;8.102;2023-05-10T13:47:16;93886.00;;;20.10
15575;BMP180;7888;46.748;8.102;2023-05-10T13:49:42;93903.00;;;20.10
15575;BMP180;7888;46.748;8.102;2023-05-10T13:52:08;93895.00;;;20.20
15575;BMP180;7888;46.748;8.102;2023-05-10T13:54:38;93898.00;;;20.20
15575;BMP180;7888;46.748;8.102;2023-05-10T13:57:05;93897.00;;;20.20
15575;BMP180;7888;46.748;8.102;2023-05-10T13:59:31;93874.00;;;20.30
15575;BMP180;7888;46.748;8.102;2023-05-10T14:01:58;93891.00;;;20.40
15575;BMP180;7888;46.748;8.102;2023-05-10T14:04:24;93883.00;;;20.40
15575;BMP180;7888;46.748;8.102;2023-05-10T14:06:50;93887.00;;;20.50
15575;BMP180;7888;46.748;8.102;2023-05-10T14:09:16;93887.00;;;20.50
15575;BMP180;7888;46.748;8.102;2023-05-10T14:11:42;93892.00;;;20.50
15575;BMP180;7888;46.748;8.102;2023-05-10T14:14:12;93898.00;;;20.40
15575;BMP180;7888;46.748;8.102;2023-05-10T14:16:44;93891.00;;;20.30
15575;BMP180;7888;46.748;8.102;2023-05-10T14:19:10;93894.00;;;20.40
15575;BMP180;7888;46.748;8.102;2023-05-10T14:21:36;93898.00;;;20.40
15575;BMP180;7888;46.748;8.102;2023-05-10T14:24:02;93891.00;;;20.40
15575;BMP180;7888;46.748;8.102;2023-05-10T14:26:28;93894.00;;;20.40
15575;BMP180;7888;46.748;8.102;2023-05-10T14:28:54;93898.00;;;20.30
15575;BMP180;7888;46.748;8.102;2023-05-10T14:31:19;93896.00;;;20.20
15575;BMP180;7888;46.748;8.102;2023-05-10T14:33:47;93894.00;;;20.20
15575;BMP180;7888;46.748;8.102;2023-05-10T14:36:13;93891.00;;;20.20
15575;BMP180;7888;46.748;8.102;2023-05-10T14:38:40;93900.00;;;20.20
15575;BMP180;7888;46.748;8.102;2023-05-10T14:41:06;93883.00;;;20.10
15575;BMP180;7888;46.748;8.102;2023-05-10T14:43:32;93899.00;;;20.10
15575;BMP180;7888;46.748;8.102;2023-05-10T14:45:58;93902.00;;;20.00
15575;BMP180;7888;46.748;8.102;2023-05-10T14:48:24;93910.00;;;20.00
15575;BMP180;7888;46.748;8.102;2023-05-10T14:50:49;93922.00;;;19.90
15575;BMP180;7888;46.748;8.102;2023-05-10T14:53:16;93931.00;;;19.90
15575;BMP180;7888;46.748;8.102;2023-05-10T14:55:42;93935.00;;;19.90
15575;BMP180;7888;46.748;8.102;2023-05-10T14:58:07;93935.00;;;19.80
15575;BMP180;7888;46.748;8.102;2023-05-10T15:00:33;93941.00;;;19.80
15575;BMP180;7888;46.748;8.102;2023-05-10T15:02:59;93941.00;;;19.80